KMNM

Menominee-Marinette Twin County Airport

Menominee, Michigan, USA
METAR KMNM 171456Z AUTO 31006KT 10SM CLR M02/M07 A3017 RMK AO2 SLP238 T10221072 53013 FZRANO $
Observed Flight Rules
Dec-17 @ 14:56 UTC (30 minutes ago) Visual Flight Rules
Wind Visibility Clouds
310° at 6 knots 10 miles
  • Clear skies
Temperatures Readings
Current -2°C / 28°F
Dewpoint -7°C / 19°F
Humidity 69%
Altimeter 30.17" Hg
Pressure 1023.8 hPa
Elevation 191
METAR KMNM 171456Z AUTO 31006KT 10SM CLR M02/M07 A3017 RMK AO2 SLP238 T10221072 53013 FZRANO $
Observed Flight Rules
Dec-17 @ 14:56 UTC
(30 minutes ago)
VFR
Wind Visibility
310° at 6 knots 10 miles
Clouds
  • Clear skies
Temperature Dewpoint
-2°C / 28°F -7°C / 19°F
Humidity Altimeter Pressure
69% 30.17" Hg 1023.8 hPa